Mont Saint Michel — FNMT — position and weather

sailwx.info

Track history (hours):
 
Tides and Currents Weather Stations Pressure Air Temp Water Temp Dewpoint Dewpoint Depression Visibility Wind Speed Wind Dir Waves Ship Positions

Mont Saint Michel

Last reported at 2018-Jun-23 04:31 UTC. Time now 2018-Jun-23 04:45 UTC.
Position N 49°17' W 000°15'.

Length 173 m; beam 29 m.

Type: Ship. MMSI: 227023100.

Date/timePositionNaut miles runAvg speedWind from/ knotsBaromVisibWave heightAir tempDewpointWater temp
2018-Jun-23 04:31N 49°17' W 000°15'714.8
2018-Jun-23 04:00N 49°25' W 000°15'612.1
2018-Jun-23 03:30N 49°30' W 000°18'612.4
2018-Jun-23 03:00N 49°36' W 000°22'612.6
2018-Jun-23 02:30N 49°42' W 000°25'815.5
2018-Jun-23 02:00N 49°49' W 000°31'816.4
2018-Jun-23 01:31N 49°56' W 000°36'816.1
2018-Jun-23 01:01N 50°04' W 000°41'815.8
2018-Jun-23 00:30N 50°11' W 000°46'815.8
2018-Jun-23 00:01N 50°18' W 000°50'816.0
2018-Jun-22 23:30N 50°26' W 000°54'816.0
2018-Jun-22 23:01N 50°34' W 000°56'815.8
2018-Jun-22 22:30N 50°42' W 000°58'714.0
2018-Jun-22 22:00N 50°47' W 001°06'2 4.1
2018-Jun-22 21:30N 50°49' W 001°06'0 0.0
2018-Jun-22 21:01N 50°49' W 001°06'0 0.0
2018-Jun-22 20:30N 50°49' W 001°06'0 0.2
2018-Jun-22 20:01N 50°49' W 001°06'510.0
2018-Jun-22 19:31N 50°44' W 001°04'917.8
2018-Jun-22 19:01N 50°36' W 000°57'1019.3
2018-Jun-22 18:30N 50°27' W 000°52'918.9
2018-Jun-22 18:01N 50°18' W 000°46'1019.0
2018-Jun-22 17:30N 50°09' W 000°41'918.9
2018-Jun-22 17:00N 50°00' W 000°36'918.8
2018-Jun-22 16:31N 49°52' W 000°31'918.6
2018-Jun-22 16:00N 49°43' W 000°25'918.7
2018-Jun-22 15:31N 49°34' W 000°21'1019.2
2018-Jun-22 15:01N 49°25' W 000°17'815.5
2018-Jun-22 14:30N 49°17' W 000°15'0 0.1
2018-Jun-22 14:00N 49°17' W 000°15'0 0.0
2018-Jun-22 13:30N 49°17' W 000°15'0 0.0
2018-Jun-22 13:01N 49°17' W 000°15'4 7.5
2018-Jun-22 12:31N 49°21' W 000°14'1020.6
2018-Jun-22 12:01N 49°31' W 000°18'1021.0
2018-Jun-22 11:31N 49°41' W 000°23'1020.7
2018-Jun-22 11:01N 49°51' W 000°29'1020.6
2018-Jun-22 10:30N 50°00' W 000°35'919.0
2018-Jun-22 10:01N 50°09' W 000°40'1019.2
2018-Jun-22 09:30N 50°18' W 000°45'1019.6
2018-Jun-22 09:01N 50°27' W 000°50'918.9
2018-Jun-22 08:31N 50°36' W 000°56'918.3
2018-Jun-22 08:01N 50°44' W 001°04'5 9.7
2018-Jun-22 07:30N 50°48' W 001°07'1 1.6
2018-Jun-22 07:00N 50°49' W 001°06'0 0.0
2018-Jun-22 06:30N 50°49' W 001°06'0 0.0
2018-Jun-22 06:00N 50°49' W 001°06'0 0.2
2018-Jun-22 05:31N 50°49' W 001°06'5 9.2
2018-Jun-22 05:00N 50°44' W 001°04'816.1
2018-Jun-22 04:30N 50°37' W 000°59'611.4
2018-Jun-22 04:00N 50°32' W 000°56'510.8
2018-Jun-22 03:30N 50°27' W 000°53'511.0
2018-Jun-22 03:00N 50°21' W 000°50'510.8
2018-Jun-22 02:30N 50°16' W 000°47'510.7
2018-Jun-22 02:00N 50°11' W 000°44'510.7
2018-Jun-22 01:30N 50°06' W 000°41'510.9
2018-Jun-22 01:00N 50°01' W 000°38'611.3
2018-Jun-22 00:30N 49°56' W 000°35'611.5
2018-Jun-22 00:00N 49°51' W 000°31'611.9
2018-Jun-21 23:30N 49°45' W 000°28'611.8
2018-Jun-21 23:00N 49°39' W 000°26'611.7
2018-Jun-21 22:30N 49°34' W 000°23'612.2
2018-Jun-21 22:00N 49°28' W 000°20'612.1
2018-Jun-21 21:30N 49°23' W 000°16'510.8
2018-Jun-21 21:00N 49°17' W 000°15'0 0.1
2018-Jun-21 20:30N 49°17' W 000°15'0 0.0
2018-Jun-21 20:00N 49°17' W 000°15'0 0.0
2018-Jun-21 19:30N 49°17' W 000°15'3 5.4
2018-Jun-21 19:01N 49°20' W 000°14'917.7
2018-Jun-21 18:30N 49°29' W 000°18'918.1
2018-Jun-21 18:00N 49°37' W 000°23'918.5
2018-Jun-21 17:31N 49°46' W 000°27'918.8
2018-Jun-21 17:00N 49°55' W 000°32'1019.2
2018-Jun-21 16:31N 50°04' W 000°37'1019.8
2018-Jun-21 16:00N 50°13' W 000°43'1019.7
2018-Jun-21 15:30N 50°22' W 000°48'1020.1
2018-Jun-21 15:01N 50°32' W 000°53'1019.5
2018-Jun-21 14:30N 50°41' W 000°60'816.5
2018-Jun-21 14:01N 50°48' W 001°07'1 2.6
2018-Jun-21 13:30N 50°49' W 001°06'0 0.0
2018-Jun-21 13:00N 50°49' W 001°06'0 0.0
2018-Jun-21 12:30N 50°49' W 001°06'1 1.3
2018-Jun-21 12:01N 50°48' W 001°07'713.4
2018-Jun-21 11:30N 50°43' W 001°00'918.4
2018-Jun-21 11:01N 50°34' W 000°56'1020.6
2018-Jun-21 10:30N 50°25' W 000°50'918.6
2018-Jun-21 10:00N 50°16' W 000°45'919.0
2018-Jun-21 09:30N 50°07' W 000°40'1019.0
2018-Jun-21 09:00N 49°58' W 000°35'918.9
2018-Jun-21 08:30N 49°49' W 000°30'918.6
2018-Jun-21 08:00N 49°41' W 000°25'918.5
2018-Jun-21 07:30N 49°32' W 000°20'918.5
2018-Jun-21 07:00N 49°23' W 000°16'611.4
2018-Jun-21 06:30N 49°17' W 000°15'0 0.0
2018-Jun-21 06:00N 49°17' W 000°15'0 0.0
2018-Jun-21 05:30N 49°17' W 000°15'0 0.0
2018-Jun-21 05:00N 49°17' W 000°15'0 0.3
2018-Jun-21 04:31N 49°17' W 000°15'713.4
2018-Jun-21 04:00N 49°24' W 000°14'612.0
2018-Jun-21 03:30N 49°30' W 000°16'612.2
2018-Jun-21 03:00N 49°35' W 000°20'611.9
2018-Jun-21 02:30N 49°41' W 000°24'612.0
2018-Jun-21 02:00N 49°46' W 000°28'612.0
2018-Jun-21 01:30N 49°52' W 000°30'612.1
2018-Jun-21 01:00N 49°58' W 000°33'612.0
2018-Jun-21 00:29N 50°04' W 000°36'612.1
2018-Jun-21 00:01N 50°09' W 000°38'815.9
2018-Jun-20 23:30N 50°17' W 000°42'815.6
2018-Jun-20 23:00N 50°24' W 000°46'815.7
2018-Jun-20 22:30N 50°30' W 000°54'815.8
2018-Jun-20 22:01N 50°38' W 000°58'714.3
2018-Jun-20 21:30N 50°44' W 001°04'5 9.7
2018-Jun-20 21:00N 50°49' W 001°06'0 0.0
2018-Jun-20 20:30N 50°49' W 001°06'0 0.0
2018-Jun-20 20:00N 50°49' W 001°06'0 0.0
2018-Jun-20 19:30N 50°49' W 001°06'0 0.0
2018-Jun-20 19:00N 50°49' W 001°06'0 0.0
2018-Jun-20 18:31N 50°49' W 001°06'0 0.1
2018-Jun-20 18:00N 50°49' W 001°06'3 6.8
2018-Jun-20 17:30N 50°45' W 001°05'917.9
2018-Jun-20 17:01N 50°37' W 000°59'918.2
2018-Jun-20 16:30N 50°29' W 000°54'917.8
2018-Jun-20 16:01N 50°21' W 000°49'918.0
2018-Jun-20 15:30N 50°12' W 000°45'917.9
2018-Jun-20 15:00N 50°03' W 000°40'917.6
2018-Jun-20 14:31N 49°55' W 000°35'917.6
2018-Jun-20 14:00N 49°47' W 000°31'917.5
2018-Jun-20 13:30N 49°39' W 000°27'917.5
2018-Jun-20 13:00N 49°30' W 000°22'815.8
2018-Jun-20 12:31N 49°23' W 000°17'612.1
2018-Jun-20 12:00N 49°17' W 000°15'0 0.0
2018-Jun-20 11:30N 49°17' W 000°15'0 0.0
2018-Jun-20 11:00N 49°17' W 000°15'0 0.0
2018-Jun-20 10:30N 49°17' W 000°15'0 0.0
2018-Jun-20 10:01N 49°17' W 000°15'0 0.0
2018-Jun-20 09:31N 49°17' W 000°15'0 0.0
2018-Jun-20 09:01N 49°17' W 000°15'0 0.0
2018-Jun-20 08:31N 49°17' W 000°15'0 0.0
2018-Jun-20 08:00N 49°17' W 000°15'0 0.0
2018-Jun-20 07:31N 49°17' W 000°15'0 0.0
2018-Jun-20 07:01N 49°17' W 000°15'0 0.0
2018-Jun-20 06:30N 49°17' W 000°15'0 0.0
2018-Jun-20 06:00N 49°17' W 000°15'0 0.0
2018-Jun-20 05:30N 49°17' W 000°15'2 4.4
2018-Jun-20 05:01N 49°20' W 000°14'714.6
2018-Jun-20 04:30N 49°27' W 000°17'612.2
2018-Jun-20 04:00N 49°32' W 000°21'611.8
2018-Jun-20 03:30N 49°38' W 000°25'611.9
2018-Jun-20 03:00N 49°43' W 000°27'611.8
2018-Jun-20 02:31N 49°49' W 000°30'611.6
2018-Jun-20 02:00N 49°54' W 000°34'612.0
2018-Jun-20 01:31N 49°60' W 000°37'612.2
2018-Jun-20 01:00N 50°05' W 000°41'816.0
2018-Jun-20 00:30N 50°13' W 000°45'715.2
2018-Jun-20 00:00N 50°21' W 000°45'816.0
2018-Jun-19 23:30N 50°28' W 000°49'816.7
2018-Jun-19 23:00N 50°36' W 000°53'815.6
2018-Jun-19 22:31N 50°43' W 000°60'713.8
2018-Jun-19 22:00N 50°48' W 001°07'1 1.9
2018-Jun-19 21:31N 50°49' W 001°06'0 0.0
2018-Jun-19 21:00N 50°49' W 001°06'0 0.0
2018-Jun-19 20:31N 50°49' W 001°06'0 0.2
2018-Jun-19 20:01N 50°49' W 001°06'611.8
2018-Jun-19 19:31N 50°43' W 001°03'917.7
2018-Jun-19 19:00N 50°35' W 000°56'1019.5
2018-Jun-19 18:30N 50°26' W 000°52'1019.1
2018-Jun-19 18:00N 50°17' W 000°46'1019.9
2018-Jun-19 17:30N 50°08' W 000°40'1019.8
2018-Jun-19 17:00N 49°59' W 000°34'1020.7
2018-Jun-19 16:30N 49°49' W 000°29'1121.2
2018-Jun-19 16:00N 49°39' W 000°23'1020.7
2018-Jun-19 15:30N 49°29' W 000°18'1020.2
2018-Jun-19 15:00N 49°20' W 000°14'2 4.4
2018-Jun-19 14:30N 49°17' W 000°15'0 0.0
2018-Jun-19 14:00N 49°17' W 000°15'0 0.0
2018-Jun-19 13:30N 49°17' W 000°15'0 0.0
2018-Jun-19 13:00N 49°17' W 000°15'2 4.0
2018-Jun-19 12:30N 49°19' W 000°15'1019.6
2018-Jun-19 12:00N 49°29' W 000°18'1019.8
2018-Jun-19 11:30N 49°38' W 000°23'1020.1
2018-Jun-19 11:00N 49°47' W 000°29'1020.1
2018-Jun-19 10:30N 49°57' W 000°35'1019.7
2018-Jun-19 10:00N 50°06' W 000°42'1119.2
2018-Jun-19 09:26N 50°16' W 000°46'819.2
2018-Jun-19 09:00N 50°24' W 000°50'1019.1
2018-Jun-19 08:30N 50°33' W 000°56'918.0
2018-Jun-19 08:00N 50°42' W 000°58'815.1
2018-Jun-19 07:30N 50°47' W 001°06'2 3.1
2018-Jun-19 07:00N 50°49' W 001°06'0 0.0
2018-Jun-19 06:30N 50°49' W 001°06'0 0.0
2018-Jun-19 06:00N 50°49' W 001°06'0 0.3
2018-Jun-19 05:31N 50°49' W 001°06'510.3
2018-Jun-19 05:01N 50°44' W 001°04'714.8
2018-Jun-19 04:31N 50°37' W 000°58'713.3
2018-Jun-19 04:00N 50°31' W 000°54'611.4
2018-Jun-19 03:30N 50°26' W 000°51'611.1
2018-Jun-19 02:57N 50°20' W 000°47'611.2
2018-Jun-19 02:25N 50°14' W 000°44'510.7
2018-Jun-19 02:00N 50°10' W 000°42'510.7
2018-Jun-19 01:30N 50°05' W 000°40'714.5
2018-Jun-19 01:00N 49°58' W 000°36'815.1
2018-Jun-19 00:31N 49°51' W 000°32'815.1
2018-Jun-19 00:01N 49°44' W 000°28'815.1
2018-Jun-18 23:31N 49°37' W 000°24'815.1
2018-Jun-18 23:01N 49°30' W 000°20'611.8
2018-Jun-18 22:30N 49°24' W 000°17'5 9.8
2018-Jun-18 22:00N 49°20' W 000°14'2 4.9
2018-Jun-18 21:30N 49°17' W 000°15'0 0.0
2018-Jun-18 21:00N 49°17' W 000°15'0 0.0
2018-Jun-18 20:30N 49°17' W 000°15'0 0.0
2018-Jun-18 20:00N 49°17' W 000°15'0 0.0
2018-Jun-18 19:30N 49°17' W 000°15'4 7.1
2018-Jun-18 19:01N 49°21' W 000°14'918.4
2018-Jun-18 18:30N 49°29' W 000°20'918.8
2018-Jun-18 18:00N 49°38' W 000°24'918.1
2018-Jun-18 17:30N 49°46' W 000°30'918.4
2018-Jun-18 17:00N 49°55' W 000°34'918.5
2018-Jun-18 16:30N 50°04' W 000°40'918.7
2018-Jun-18 16:00N 50°13' W 000°44'1018.8
2018-Jun-18 15:28N 50°22' W 000°49'919.0
2018-Jun-18 15:00N 50°31' W 000°54'918.8
2018-Jun-18 14:30N 50°39' W 000°59'816.8
2018-Jun-18 14:01N 50°47' W 001°06'2 4.2
2018-Jun-18 13:31N 50°49' W 001°06'0 0.0
2018-Jun-18 13:01N 50°49' W 001°06'0 0.0
2018-Jun-18 12:30N 50°49' W 001°06'0 1.0
2018-Jun-18 12:00N 50°49' W 001°07'612.4
2018-Jun-18 11:31N 50°43' W 001°01'1019.0
2018-Jun-18 11:00N 50°34' W 000°57'1320.7
2018-Jun-18 10:24N 50°22' W 000°53'821.1
2018-Jun-18 10:00N 50°14' W 000°52'1020.6
2018-Jun-18 09:30N 50°04' W 000°47'1020.2
2018-Jun-18 09:00N 49°54' W 000°42'918.9
2018-Jun-18 08:31N 49°46' W 000°35'1019.4
2018-Jun-18 08:01N 49°37' W 000°28'1019.7
2018-Jun-18 07:31N 49°29' W 000°20'918.8
2018-Jun-18 07:00N 49°20' W 000°15'3 5.7
2018-Jun-18 06:30N 49°17' W 000°15'0 0.0
2018-Jun-18 06:00N 49°17' W 000°15'0 0.0
2018-Jun-18 05:30N 49°17' W 000°15'0 0.0
2018-Jun-18 05:00N 49°17' W 000°15'0 0.1
2018-Jun-18 04:30N 49°17' W 000°15'714.6
2018-Jun-18 04:00N 49°25' W 000°15'815.4
2018-Jun-18 03:31N 49°32' W 000°20'815.2
2018-Jun-18 03:01N 49°39' W 000°25'815.3
2018-Jun-18 02:31N 49°46' W 000°29'815.6
2018-Jun-18 02:00N 49°53' W 000°33'815.8
2018-Jun-18 01:30N 50°01' W 000°37'815.8
2018-Jun-18 01:00N 50°08' W 000°41'1115.2
2018-Jun-18 00:15N 50°19' W 000°46'414.6
2018-Jun-18 00:00N 50°22' W 000°48'815.2
2018-Jun-17 23:30N 50°30' W 000°52'815.7
2018-Jun-17 23:01N 50°37' W 000°57'713.6
2018-Jun-17 22:30N 50°43' W 001°01'612.9
2018-Jun-17 22:00N 50°48' W 001°07'1 1.7
2018-Jun-17 21:30N 50°49' W 001°06'0 0.0
2018-Jun-17 21:00N 50°49' W 001°06'0 0.0
2018-Jun-17 20:30N 50°49' W 001°06'0 0.6
2018-Jun-17 20:00N 50°49' W 001°06'611.6
2018-Jun-17 19:31N 50°44' W 001°02'815.9
2018-Jun-17 19:00N 50°36' W 000°57'1019.4
2018-Jun-17 18:31N 50°27' W 000°53'1119.3
2018-Jun-17 17:57N 50°17' W 000°47'919.8
2018-Jun-17 17:31N 50°09' W 000°42'1020.0
2018-Jun-17 17:00N 49°59' W 000°37'1020.2
2018-Jun-17 16:31N 49°50' W 000°31'1020.0
2018-Jun-17 16:01N 49°40' W 000°26'1019.9
2018-Jun-17 15:31N 49°31' W 000°20'1019.6
2018-Jun-17 15:01N 49°22' W 000°15'5 9.2
2018-Jun-17 14:30N 49°17' W 000°15'0 0.0
2018-Jun-17 13:59N 49°17' W 000°15'0 0.0
2018-Jun-17 13:31N 49°17' W 000°15'0 0.0
2018-Jun-17 13:00N 49°17' W 000°15'3 5.5
2018-Jun-17 12:31N 49°20' W 000°14'1020.3
2018-Jun-17 12:00N 49°30' W 000°18'1020.4
2018-Jun-17 11:31N 49°40' W 000°24'1020.7
2018-Jun-17 11:01N 49°49' W 000°29'1020.9
2018-Jun-17 10:30N 49°59' W 000°34'1121.0
2018-Jun-17 10:00N 50°09' W 000°39'1121.5
2018-Jun-17 09:30N 50°19' W 000°46'1021.1
2018-Jun-17 09:00N 50°29' W 000°52'1020.8
2018-Jun-17 08:31N 50°39' W 000°58'816.6
2018-Jun-17 08:01N 50°45' W 001°05'3 6.4
2018-Jun-17 07:31N 50°49' W 001°06'0 0.0
2018-Jun-17 07:01N 50°49' W 001°06'0 0.0
2018-Jun-17 06:31N 50°49' W 001°06'0 0.0
2018-Jun-17 06:00N 50°49' W 001°06'1 1.6
2018-Jun-17 05:30N 50°48' W 001°07'611.8
2018-Jun-17 05:00N 50°43' W 001°02'713.0
2018-Jun-17 04:30N 50°37' W 000°58'713.1
2018-Jun-17 04:00N 50°31' W 000°54'611.5
2018-Jun-17 03:30N 50°26' W 000°51'611.4
2018-Jun-17 02:58N 50°20' W 000°48'612.1
2018-Jun-17 02:30N 50°15' W 000°45'611.9
2018-Jun-17 02:00N 50°09' W 000°40'611.6
2018-Jun-17 01:30N 50°05' W 000°36'611.5
2018-Jun-17 01:00N 49°59' W 000°33'611.3
2018-Jun-17 00:30N 49°54' W 000°30'611.1
2018-Jun-17 00:00N 49°48' W 000°27'611.0
2018-Jun-16 23:30N 49°43' W 000°25'611.2
2018-Jun-16 23:00N 49°38' W 000°22'611.3
2018-Jun-16 22:30N 49°32' W 000°20'510.7
2018-Jun-16 22:00N 49°27' W 000°17'510.6
2018-Jun-16 21:30N 49°22' W 000°14'510.0
2018-Jun-16 21:00N 49°17' W 000°15'0 0.1
2018-Jun-16 20:30N 49°17' W 000°15'0 0.0
2018-Jun-16 20:00N 49°17' W 000°15'0 0.0
2018-Jun-16 19:30N 49°17' W 000°15'4 7.5
2018-Jun-16 19:00N 49°21' W 000°14'918.7
2018-Jun-16 18:30N 49°30' W 000°21'1019.1
2018-Jun-16 18:00N 49°38' W 000°28'918.9
2018-Jun-16 17:30N 49°47' W 000°34'918.6
2018-Jun-16 17:00N 49°55' W 000°39'918.3
2018-Jun-16 16:31N 50°04' W 000°44'918.0
2018-Jun-16 16:00N 50°12' W 000°48'1418.5
2018-Jun-16 15:14N 50°26' W 000°55'418.4
2018-Jun-16 15:00N 50°30' W 000°56'918.4
2018-Jun-16 14:30N 50°39' W 000°59'816.2
2018-Jun-16 14:01N 50°46' W 001°05'3 5.3
2018-Jun-16 13:30N 50°49' W 001°06'0 0.0
2018-Jun-16 13:00N 50°49' W 001°06'0 0.0
2018-Jun-16 12:30N 50°49' W 001°06'0 0.7
2018-Jun-16 12:00N 50°49' W 001°06'612.1
2018-Jun-16 11:30N 50°43' W 001°02'1020.5
2018-Jun-16 11:01N 50°34' W 000°55'1120.5
2018-Jun-16 10:28N 50°24' W 000°48'1021.2
2018-Jun-16 10:00N 50°14' W 000°46'1020.0
2018-Jun-16 09:30N 50°05' W 000°39'1019.2
2018-Jun-16 09:01N 49°57' W 000°33'1020.1
2018-Jun-16 08:30N 49°47' W 000°28'1020.0
2018-Jun-16 08:01N 49°37' W 000°23'1019.2
2018-Jun-16 07:31N 49°28' W 000°18'917.8
2018-Jun-16 07:00N 49°20' W 000°14'2 5.0
2018-Jun-16 06:30N 49°17' W 000°15'0 0.0
2018-Jun-16 06:00N 49°17' W 000°15'0 0.0
2018-Jun-16 05:30N 49°17' W 000°15'0 0.0
2018-Jun-16 05:00N 49°17' W 000°15'0 0.1
2018-Jun-16 04:30N 49°17' W 000°15'714.4
2018-Jun-16 04:01N 49°25' W 000°14'917.3
2018-Jun-16 03:31N 49°32' W 000°20'917.1
2018-Jun-16 03:01N 49°40' W 000°25'714.3
2018-Jun-16 02:31N 49°47' W 000°29'714.5
2018-Jun-16 02:01N 49°54' W 000°32'714.7
2018-Jun-16 01:31N 50°01' W 000°36'915.1
2018-Jun-16 00:55N 50°09' W 000°40'715.5
2018-Jun-16 00:28N 50°16' W 000°44'715.6
2018-Jun-15 23:59N 50°23' W 000°49'816.0
2018-Jun-15 23:30N 50°30' W 000°53'815.7
2018-Jun-15 23:00N 50°37' W 000°57'714.0
2018-Jun-15 22:30N 50°43' W 001°03'611.4
2018-Jun-15 22:01N 50°48' W 001°07'1 1.6
2018-Jun-15 21:31N 50°49' W 001°06'0 0.0
2018-Jun-15 21:00N 50°49' W 001°06'0 0.0
2018-Jun-15 20:30N 50°49' W 001°06'1 1.7
2018-Jun-15 20:00N 50°48' W 001°07'713.5
2018-Jun-15 19:30N 50°43' W 001°00'1019.4
2018-Jun-15 19:00N 50°34' W 000°57'1020.9
2018-Jun-15 18:30N 50°23' W 000°54'1020.9
2018-Jun-15 18:00N 50°13' W 000°49'1020.9
2018-Jun-15 17:30N 50°03' W 000°44'1121.3
2018-Jun-15 17:00N 49°53' W 000°37'1121.4
2018-Jun-15 16:30N 49°44' W 000°30'1121.5
2018-Jun-15 16:00N 49°34' W 000°23'1121.3
2018-Jun-15 15:30N 49°25' W 000°16'714.8
2018-Jun-15 15:01N 49°17' W 000°15'0 0.1
2018-Jun-15 14:30N 49°17' W 000°15'0 0.0
2018-Jun-15 14:00N 49°17' W 000°15'0 0.0
2018-Jun-15 13:30N 49°17' W 000°15'0 0.0
2018-Jun-15 13:00N 49°17' W 000°15'5 9.6
2018-Jun-15 12:30N 49°22' W 000°14'1020.9
2018-Jun-15 12:00N 49°32' W 000°19'1019.7
2018-Jun-15 11:30N 49°41' W 000°24'1019.8
2018-Jun-15 11:00N 49°51' W 000°29'1019.9
2018-Jun-15 10:30N 50°00' W 000°34'1020.1
2018-Jun-15 10:00N 50°09' W 000°39'1020.2
2018-Jun-15 09:30N 50°19' W 000°46'1220.1
2018-Jun-15 08:55N 50°30' W 000°53'819.8
2018-Jun-15 08:30N 50°37' W 000°58'816.7
2018-Jun-15 08:00N 50°44' W 001°04'4 8.9
2018-Jun-15 07:30N 50°49' W 001°06'0 0.5
2018-Jun-15 07:00N 50°49' W 001°06'0 0.0
2018-Jun-15 06:30N 50°49' W 001°06'0 0.0
2018-Jun-15 06:00N 50°49' W 001°06'1 1.6
2018-Jun-15 05:30N 50°48' W 001°07'611.8
2018-Jun-15 05:00N 50°43' W 001°01'612.3
2018-Jun-15 04:30N 50°38' W 000°58'815.0
2018-Jun-15 04:00N 50°30' W 000°55'612.0
2018-Jun-15 03:30N 50°25' W 000°52'910.9
2018-Jun-15 02:42N 50°17' W 000°47'211.1
2018-Jun-15 02:30N 50°14' W 000°46'611.8
2018-Jun-15 02:00N 50°09' W 000°42'611.8
2018-Jun-15 01:30N 50°03' W 000°39'611.8
2018-Jun-15 01:00N 49°58' W 000°36'611.9
2018-Jun-15 00:30N 49°53' W 000°32'611.7
2018-Jun-15 00:01N 49°47' W 000°29'611.5
2018-Jun-14 23:30N 49°42' W 000°26'611.3
2018-Jun-14 23:00N 49°36' W 000°23'611.3
2018-Jun-14 22:30N 49°31' W 000°20'611.2
2018-Jun-14 22:01N 49°26' W 000°18'510.8
2018-Jun-14 21:31N 49°21' W 000°15'3 6.7
2018-Jun-14 21:00N 49°17' W 000°15'0 0.0
2018-Jun-14 20:30N 49°17' W 000°15'0 0.0
2018-Jun-14 20:01N 49°17' W 000°15'0 0.0
2018-Jun-14 19:31N 49°17' W 000°15'4 7.6
2018-Jun-14 19:00N 49°21' W 000°14'1121.2
2018-Jun-14 18:30N 49°31' W 000°22'1121.1
2018-Jun-14 18:00N 49°40' W 000°29'1020.6
2018-Jun-14 17:30N 49°50' W 000°35'1019.1
2018-Jun-14 17:00N 49°58' W 000°41'918.6
2018-Jun-14 16:30N 50°07' W 000°45'918.7
2018-Jun-14 16:00N 50°16' W 000°49'1019.2
2018-Jun-14 15:30N 50°26' W 000°52'918.8
2018-Jun-14 15:00N 50°35' W 000°57'918.3
2018-Jun-14 14:30N 50°43' W 001°02'612.4
2018-Jun-14 14:01N 50°49' W 001°07'0 0.9
2018-Jun-14 13:30N 50°49' W 001°06'0 0.0
2018-Jun-14 13:00N 50°49' W 001°06'0 0.0
2018-Jun-14 12:30N 50°49' W 001°06'0 0.3
2018-Jun-14 12:01N 50°49' W 001°06'4 8.6
2018-Jun-14 11:31N 50°44' W 001°04'1019.6
2018-Jun-14 11:00N 50°36' W 000°57'2020.5
2018-Jun-14 10:00N 50°16' W 000°47'1020.8
2018-Jun-14 09:31N 50°07' W 000°41'1020.4
2018-Jun-14 09:01N 49°57' W 000°36'1020.4
2018-Jun-14 08:30N 49°47' W 000°32'1020.0
2018-Jun-14 08:01N 49°39' W 000°24'1020.5
2018-Jun-14 07:30N 49°29' W 000°18'1019.3
2018-Jun-14 07:01N 49°20' W 000°14'2 4.7
2018-Jun-14 06:30N 49°17' W 000°15'0 0.0
2018-Jun-14 06:00N 49°17' W 000°15'0 0.0
2018-Jun-14 05:30N 49°17' W 000°15'0 0.0
2018-Jun-14 05:00N 49°17' W 000°15'0 0.3
2018-Jun-14 04:30N 49°17' W 000°15'714.1
2018-Jun-14 04:00N 49°24' W 000°16'611.3
2018-Jun-14 03:30N 49°30' W 000°19'611.8
2018-Jun-14 03:01N 49°35' W 000°23'714.9
2018-Jun-14 02:31N 49°42' W 000°27'714.2
2018-Jun-14 02:00N 49°49' W 000°31'713.6
2018-Jun-14 01:31N 49°55' W 000°36'713.7
2018-Jun-14 01:00N 50°01' W 000°41'815.1
2018-Jun-14 00:30N 50°08' W 000°43'815.3
2018-Jun-14 00:00N 50°16' W 000°45'815.5
2018-Jun-13 23:30N 50°23' W 000°49'815.9
2018-Jun-13 23:00N 50°31' W 000°54'815.5
2018-Jun-13 22:30N 50°38' W 000°58'713.9
2018-Jun-13 22:00N 50°44' W 001°03'5 9.5
2018-Jun-13 21:30N 50°48' W 001°07'1 1.9
2018-Jun-13 21:00N 50°49' W 001°06'0 0.0
2018-Jun-13 20:30N 50°49' W 001°06'0 0.0
2018-Jun-13 20:00N 50°49' W 001°06'0 0.0
2018-Jun-13 19:30N 50°49' W 001°06'0 0.0
2018-Jun-13 19:00N 50°49' W 001°06'0 0.0
2018-Jun-13 18:30N 50°49' W 001°06'1 1.8
2018-Jun-13 18:00N 50°48' W 001°07'612.5
2018-Jun-13 17:31N 50°43' W 001°01'714.1
2018-Jun-13 17:01N 50°37' W 000°58'815.5
2018-Jun-13 16:30N 50°29' W 000°55'816.9
2018-Jun-13 16:01N 50°21' W 000°52'918.9
2018-Jun-13 15:31N 50°12' W 000°48'1019.4
2018-Jun-13 15:01N 50°03' W 000°41'1019.8
2018-Jun-13 14:31N 49°54' W 000°35'1019.7
2018-Jun-13 14:00N 49°45' W 000°29'1019.2
2018-Jun-13 13:31N 49°36' W 000°24'1019.2
2018-Jun-13 13:00N 49°27' W 000°18'917.8
2018-Jun-13 12:30N 49°18' W 000°15'1 1.9
2018-Jun-13 12:00N 49°17' W 000°15'0 0.0
2018-Jun-13 11:30N 49°17' W 000°15'0 0.0
2018-Jun-13 11:00N 49°17' W 000°15'0 0.1
2018-Jun-13 10:30N 49°17' W 000°15'0 0.0
2018-Jun-13 10:00N 49°17' W 000°15'0 0.0
2018-Jun-13 09:30N 49°17' W 000°15'0 0.0
2018-Jun-13 09:00N 49°17' W 000°15'0 0.0
2018-Jun-13 08:30N 49°17' W 000°15'0 0.0
2018-Jun-13 07:55N 49°17' W 000°15'0 0.0
2018-Jun-13 07:30N 49°17' W 000°15'0 0.0
2018-Jun-13 06:55N 49°17' W 000°15'0 0.1
2018-Jun-13 06:30N 49°17' W 000°15'0 0.0
2018-Jun-13 06:00N 49°17' W 000°15'0 0.0
2018-Jun-13 05:30N 49°17' W 000°15'2 4.8
2018-Jun-13 05:00N 49°20' W 000°14'815.3
2018-Jun-13 04:31N 49°27' W 000°16'  
Track history (hours):
 
Tides and Currents Weather Stations Pressure Air Temp Water Temp Dewpoint Dewpoint Depression Visibility Wind Speed Wind Dir Waves Ship Positions

Mont Saint Michel

Last reported at 2018-Jun-23 04:31 UTC. Time now 2018-Jun-23 04:45 UTC.
Position N 49°17' W 000°15'.

Length 173 m; beam 29 m.

Type: Ship. MMSI: 227023100.

Date/timePositionNaut miles runAvg speedWind from/ knotsBaromVisibWave heightAir tempDewpointWater temp
2018-Jun-23 04:31N 49°17' W 000°15'714.8
2018-Jun-23 04:00N 49°25' W 000°15'612.1
2018-Jun-23 03:30N 49°30' W 000°18'612.4
2018-Jun-23 03:00N 49°36' W 000°22'612.6
2018-Jun-23 02:30N 49°42' W 000°25'815.5
2018-Jun-23 02:00N 49°49' W 000°31'816.4
2018-Jun-23 01:31N 49°56' W 000°36'816.1
2018-Jun-23 01:01N 50°04' W 000°41'815.8
2018-Jun-23 00:30N 50°11' W 000°46'815.8
2018-Jun-23 00:01N 50°18' W 000°50'816.0
2018-Jun-22 23:30N 50°26' W 000°54'816.0
2018-Jun-22 23:01N 50°34' W 000°56'815.8
2018-Jun-22 22:30N 50°42' W 000°58'714.0
2018-Jun-22 22:00N 50°47' W 001°06'2 4.1
2018-Jun-22 21:30N 50°49' W 001°06'0 0.0
2018-Jun-22 21:01N 50°49' W 001°06'0 0.0
2018-Jun-22 20:30N 50°49' W 001°06'0 0.2
2018-Jun-22 20:01N 50°49' W 001°06'510.0
2018-Jun-22 19:31N 50°44' W 001°04'917.8
2018-Jun-22 19:01N 50°36' W 000°57'1019.3
2018-Jun-22 18:30N 50°27' W 000°52'918.9
2018-Jun-22 18:01N 50°18' W 000°46'1019.0
2018-Jun-22 17:30N 50°09' W 000°41'918.9
2018-Jun-22 17:00N 50°00' W 000°36'918.8
2018-Jun-22 16:31N 49°52' W 000°31'918.6
2018-Jun-22 16:00N 49°43' W 000°25'918.7
2018-Jun-22 15:31N 49°34' W 000°21'1019.2
2018-Jun-22 15:01N 49°25' W 000°17'815.5
2018-Jun-22 14:30N 49°17' W 000°15'0 0.1
2018-Jun-22 14:00N 49°17' W 000°15'0 0.0
2018-Jun-22 13:30N 49°17' W 000°15'0 0.0
2018-Jun-22 13:01N 49°17' W 000°15'4 7.5
2018-Jun-22 12:31N 49°21' W 000°14'1020.6
2018-Jun-22 12:01N 49°31' W 000°18'1021.0
2018-Jun-22 11:31N 49°41' W 000°23'1020.7
2018-Jun-22 11:01N 49°51' W 000°29'1020.6
2018-Jun-22 10:30N 50°00' W 000°35'919.0
2018-Jun-22 10:01N 50°09' W 000°40'1019.2
2018-Jun-22 09:30N 50°18' W 000°45'1019.6
2018-Jun-22 09:01N 50°27' W 000°50'918.9
2018-Jun-22 08:31N 50°36' W 000°56'918.3
2018-Jun-22 08:01N 50°44' W 001°04'5 9.7
2018-Jun-22 07:30N 50°48' W 001°07'1 1.6
2018-Jun-22 07:00N 50°49' W 001°06'0 0.0
2018-Jun-22 06:30N 50°49' W 001°06'0 0.0
2018-Jun-22 06:00N 50°49' W 001°06'0 0.2
2018-Jun-22 05:31N 50°49' W 001°06'5 9.2
2018-Jun-22 05:00N 50°44' W 001°04'816.1
2018-Jun-22 04:30N 50°37' W 000°59'611.4
2018-Jun-22 04:00N 50°32' W 000°56'510.8
2018-Jun-22 03:30N 50°27' W 000°53'511.0
2018-Jun-22 03:00N 50°21' W 000°50'510.8
2018-Jun-22 02:30N 50°16' W 000°47'510.7
2018-Jun-22 02:00N 50°11' W 000°44'510.7
2018-Jun-22 01:30N 50°06' W 000°41'510.9
2018-Jun-22 01:00N 50°01' W 000°38'611.3
2018-Jun-22 00:30N 49°56' W 000°35'611.5
2018-Jun-22 00:00N 49°51' W 000°31'611.9
2018-Jun-21 23:30N 49°45' W 000°28'611.8
2018-Jun-21 23:00N 49°39' W 000°26'611.7
2018-Jun-21 22:30N 49°34' W 000°23'612.2
2018-Jun-21 22:00N 49°28' W 000°20'612.1
2018-Jun-21 21:30N 49°23' W 000°16'510.8
2018-Jun-21 21:00N 49°17' W 000°15'0 0.1
2018-Jun-21 20:30N 49°17' W 000°15'0 0.0
2018-Jun-21 20:00N 49°17' W 000°15'0 0.0
2018-Jun-21 19:30N 49°17' W 000°15'3 5.4
2018-Jun-21 19:01N 49°20' W 000°14'917.7
2018-Jun-21 18:30N 49°29' W 000°18'918.1
2018-Jun-21 18:00N 49°37' W 000°23'918.5
2018-Jun-21 17:31N 49°46' W 000°27'918.8
2018-Jun-21 17:00N 49°55' W 000°32'1019.2
2018-Jun-21 16:31N 50°04' W 000°37'1019.8
2018-Jun-21 16:00N 50°13' W 000°43'1019.7
2018-Jun-21 15:30N 50°22' W 000°48'1020.1
2018-Jun-21 15:01N 50°32' W 000°53'1019.5
2018-Jun-21 14:30N 50°41' W 000°60'816.5
2018-Jun-21 14:01N 50°48' W 001°07'1 2.6
2018-Jun-21 13:30N 50°49' W 001°06'0 0.0
2018-Jun-21 13:00N 50°49' W 001°06'0 0.0
2018-Jun-21 12:30N 50°49' W 001°06'1 1.3
2018-Jun-21 12:01N 50°48' W 001°07'713.4
2018-Jun-21 11:30N 50°43' W 001°00'918.4
2018-Jun-21 11:01N 50°34' W 000°56'1020.6
2018-Jun-21 10:30N 50°25' W 000°50'918.6
2018-Jun-21 10:00N 50°16' W 000°45'919.0
2018-Jun-21 09:30N 50°07' W 000°40'1019.0
2018-Jun-21 09:00N 49°58' W 000°35'918.9
2018-Jun-21 08:30N 49°49' W 000°30'918.6
2018-Jun-21 08:00N 49°41' W 000°25'918.5
2018-Jun-21 07:30N 49°32' W 000°20'918.5
2018-Jun-21 07:00N 49°23' W 000°16'611.4
2018-Jun-21 06:30N 49°17' W 000°15'0 0.0
2018-Jun-21 06:00N 49°17' W 000°15'0 0.0
2018-Jun-21 05:30N 49°17' W 000°15'0 0.0
2018-Jun-21 05:00N 49°17' W 000°15'0 0.3
2018-Jun-21 04:31N 49°17' W 000°15'713.4
2018-Jun-21 04:00N 49°24' W 000°14'612.0
2018-Jun-21 03:30N 49°30' W 000°16'612.2
2018-Jun-21 03:00N 49°35' W 000°20'611.9
2018-Jun-21 02:30N 49°41' W 000°24'612.0
2018-Jun-21 02:00N 49°46' W 000°28'612.0
2018-Jun-21 01:30N 49°52' W 000°30'612.1
2018-Jun-21 01:00N 49°58' W 000°33'612.0
2018-Jun-21 00:29N 50°04' W 000°36'612.1
2018-Jun-21 00:01N 50°09' W 000°38'815.9
2018-Jun-20 23:30N 50°17' W 000°42'815.6
2018-Jun-20 23:00N 50°24' W 000°46'815.7
2018-Jun-20 22:30N 50°30' W 000°54'815.8
2018-Jun-20 22:01N 50°38' W 000°58'714.3
2018-Jun-20 21:30N 50°44' W 001°04'5 9.7
2018-Jun-20 21:00N 50°49' W 001°06'0 0.0
2018-Jun-20 20:30N 50°49' W 001°06'0 0.0
2018-Jun-20 20:00N 50°49' W 001°06'0 0.0
2018-Jun-20 19:30N 50°49' W 001°06'0 0.0
2018-Jun-20 19:00N 50°49' W 001°06'0 0.0
2018-Jun-20 18:31N 50°49' W 001°06'0 0.1
2018-Jun-20 18:00N 50°49' W 001°06'3 6.8
2018-Jun-20 17:30N 50°45' W 001°05'917.9
2018-Jun-20 17:01N 50°37' W 000°59'918.2
2018-Jun-20 16:30N 50°29' W 000°54'917.8
2018-Jun-20 16:01N 50°21' W 000°49'918.0
2018-Jun-20 15:30N 50°12' W 000°45'917.9
2018-Jun-20 15:00N 50°03' W 000°40'917.6
2018-Jun-20 14:31N 49°55' W 000°35'917.6
2018-Jun-20 14:00N 49°47' W 000°31'917.5
2018-Jun-20 13:30N 49°39' W 000°27'917.5
2018-Jun-20 13:00N 49°30' W 000°22'815.8
2018-Jun-20 12:31N 49°23' W 000°17'612.1
2018-Jun-20 12:00N 49°17' W 000°15'0 0.0
2018-Jun-20 11:30N 49°17' W 000°15'0 0.0
2018-Jun-20 11:00N 49°17' W 000°15'0 0.0
2018-Jun-20 10:30N 49°17' W 000°15'0 0.0
2018-Jun-20 10:01N 49°17' W 000°15'0 0.0
2018-Jun-20 09:31N 49°17' W 000°15'0 0.0
2018-Jun-20 09:01N 49°17' W 000°15'0 0.0
2018-Jun-20 08:31N 49°17' W 000°15'0 0.0
2018-Jun-20 08:00N 49°17' W 000°15'0 0.0
2018-Jun-20 07:31N 49°17' W 000°15'0 0.0
2018-Jun-20 07:01N 49°17' W 000°15'0 0.0
2018-Jun-20 06:30N 49°17' W 000°15'0 0.0
2018-Jun-20 06:00N 49°17' W 000°15'0 0.0
2018-Jun-20 05:30N 49°17' W 000°15'2 4.4
2018-Jun-20 05:01N 49°20' W 000°14'714.6
2018-Jun-20 04:30N 49°27' W 000°17'612.2
2018-Jun-20 04:00N 49°32' W 000°21'611.8
2018-Jun-20 03:30N 49°38' W 000°25'611.9
2018-Jun-20 03:00N 49°43' W 000°27'611.8
2018-Jun-20 02:31N 49°49' W 000°30'611.6
2018-Jun-20 02:00N 49°54' W 000°34'612.0
2018-Jun-20 01:31N 49°60' W 000°37'612.2
2018-Jun-20 01:00N 50°05' W 000°41'816.0
2018-Jun-20 00:30N 50°13' W 000°45'715.2
2018-Jun-20 00:00N 50°21' W 000°45'816.0
2018-Jun-19 23:30N 50°28' W 000°49'816.7
2018-Jun-19 23:00N 50°36' W 000°53'815.6
2018-Jun-19 22:31N 50°43' W 000°60'713.8
2018-Jun-19 22:00N 50°48' W 001°07'1 1.9
2018-Jun-19 21:31N 50°49' W 001°06'0 0.0
2018-Jun-19 21:00N 50°49' W 001°06'0 0.0
2018-Jun-19 20:31N 50°49' W 001°06'0 0.2
2018-Jun-19 20:01N 50°49' W 001°06'611.8
2018-Jun-19 19:31N 50°43' W 001°03'917.7
2018-Jun-19 19:00N 50°35' W 000°56'1019.5
2018-Jun-19 18:30N 50°26' W 000°52'1019.1
2018-Jun-19 18:00N 50°17' W 000°46'1019.9
2018-Jun-19 17:30N 50°08' W 000°40'1019.8
2018-Jun-19 17:00N 49°59' W 000°34'1020.7
2018-Jun-19 16:30N 49°49' W 000°29'1121.2
2018-Jun-19 16:00N 49°39' W 000°23'1020.7
2018-Jun-19 15:30N 49°29' W 000°18'1020.2
2018-Jun-19 15:00N 49°20' W 000°14'2 4.4
2018-Jun-19 14:30N 49°17' W 000°15'0 0.0
2018-Jun-19 14:00N 49°17' W 000°15'0 0.0
2018-Jun-19 13:30N 49°17' W 000°15'0 0.0
2018-Jun-19 13:00N 49°17' W 000°15'2 4.0
2018-Jun-19 12:30N 49°19' W 000°15'1019.6
2018-Jun-19 12:00N 49°29' W 000°18'1019.8
2018-Jun-19 11:30N 49°38' W 000°23'1020.1
2018-Jun-19 11:00N 49°47' W 000°29'1020.1
2018-Jun-19 10:30N 49°57' W 000°35'1019.7
2018-Jun-19 10:00N 50°06' W 000°42'1119.2
2018-Jun-19 09:26N 50°16' W 000°46'819.2
2018-Jun-19 09:00N 50°24' W 000°50'1019.1
2018-Jun-19 08:30N 50°33' W 000°56'918.0
2018-Jun-19 08:00N 50°42' W 000°58'815.1
2018-Jun-19 07:30N 50°47' W 001°06'2 3.1
2018-Jun-19 07:00N 50°49' W 001°06'0 0.0
2018-Jun-19 06:30N 50°49' W 001°06'0 0.0
2018-Jun-19 06:00N 50°49' W 001°06'0 0.3
2018-Jun-19 05:31N 50°49' W 001°06'510.3
2018-Jun-19 05:01N 50°44' W 001°04'714.8
2018-Jun-19 04:31N 50°37' W 000°58'713.3
2018-Jun-19 04:00N 50°31' W 000°54'611.4
2018-Jun-19 03:30N 50°26' W 000°51'611.1
2018-Jun-19 02:57N 50°20' W 000°47'611.2
2018-Jun-19 02:25N 50°14' W 000°44'510.7
2018-Jun-19 02:00N 50°10' W 000°42'510.7
2018-Jun-19 01:30N 50°05' W 000°40'714.5
2018-Jun-19 01:00N 49°58' W 000°36'815.1
2018-Jun-19 00:31N 49°51' W 000°32'815.1
2018-Jun-19 00:01N 49°44' W 000°28'815.1
2018-Jun-18 23:31N 49°37' W 000°24'815.1
2018-Jun-18 23:01N 49°30' W 000°20'611.8
2018-Jun-18 22:30N 49°24' W 000°17'5 9.8
2018-Jun-18 22:00N 49°20' W 000°14'2 4.9
2018-Jun-18 21:30N 49°17' W 000°15'0 0.0
2018-Jun-18 21:00N 49°17' W 000°15'0 0.0
2018-Jun-18 20:30N 49°17' W 000°15'0 0.0
2018-Jun-18 20:00N 49°17' W 000°15'0 0.0
2018-Jun-18 19:30N 49°17' W 000°15'4 7.1
2018-Jun-18 19:01N 49°21' W 000°14'918.4
2018-Jun-18 18:30N 49°29' W 000°20'918.8
2018-Jun-18 18:00N 49°38' W 000°24'918.1
2018-Jun-18 17:30N 49°46' W 000°30'918.4
2018-Jun-18 17:00N 49°55' W 000°34'918.5
2018-Jun-18 16:30N 50°04' W 000°40'918.7
2018-Jun-18 16:00N 50°13' W 000°44'1018.8
2018-Jun-18 15:28N 50°22' W 000°49'919.0
2018-Jun-18 15:00N 50°31' W 000°54'918.8
2018-Jun-18 14:30N 50°39' W 000°59'816.8
2018-Jun-18 14:01N 50°47' W 001°06'2 4.2
2018-Jun-18 13:31N 50°49' W 001°06'0 0.0
2018-Jun-18 13:01N 50°49' W 001°06'0 0.0
2018-Jun-18 12:30N 50°49' W 001°06'0 1.0
2018-Jun-18 12:00N 50°49' W 001°07'612.4
2018-Jun-18 11:31N 50°43' W 001°01'1019.0
2018-Jun-18 11:00N 50°34' W 000°57'1320.7
2018-Jun-18 10:24N 50°22' W 000°53'821.1
2018-Jun-18 10:00N 50°14' W 000°52'1020.6
2018-Jun-18 09:30N 50°04' W 000°47'1020.2
2018-Jun-18 09:00N 49°54' W 000°42'918.9
2018-Jun-18 08:31N 49°46' W 000°35'1019.4
2018-Jun-18 08:01N 49°37' W 000°28'1019.7
2018-Jun-18 07:31N 49°29' W 000°20'918.8
2018-Jun-18 07:00N 49°20' W 000°15'3 5.7
2018-Jun-18 06:30N 49°17' W 000°15'0 0.0
2018-Jun-18 06:00N 49°17' W 000°15'0 0.0
2018-Jun-18 05:30N 49°17' W 000°15'0 0.0
2018-Jun-18 05:00N 49°17' W 000°15'0 0.1
2018-Jun-18 04:30N 49°17' W 000°15'714.6
2018-Jun-18 04:00N 49°25' W 000°15'815.4
2018-Jun-18 03:31N 49°32' W 000°20'815.2
2018-Jun-18 03:01N 49°39' W 000°25'815.3
2018-Jun-18 02:31N 49°46' W 000°29'815.6
2018-Jun-18 02:00N 49°53' W 000°33'815.8
2018-Jun-18 01:30N 50°01' W 000°37'815.8
2018-Jun-18 01:00N 50°08' W 000°41'1115.2
2018-Jun-18 00:15N 50°19' W 000°46'414.6
2018-Jun-18 00:00N 50°22' W 000°48'815.2
2018-Jun-17 23:30N 50°30' W 000°52'815.7
2018-Jun-17 23:01N 50°37' W 000°57'713.6
2018-Jun-17 22:30N 50°43' W 001°01'612.9
2018-Jun-17 22:00N 50°48' W 001°07'1 1.7
2018-Jun-17 21:30N 50°49' W 001°06'0 0.0
2018-Jun-17 21:00N 50°49' W 001°06'0 0.0
2018-Jun-17 20:30N 50°49' W 001°06'0 0.6
2018-Jun-17 20:00N 50°49' W 001°06'611.6
2018-Jun-17 19:31N 50°44' W 001°02'815.9
2018-Jun-17 19:00N 50°36' W 000°57'1019.4
2018-Jun-17 18:31N 50°27' W 000°53'1119.3
2018-Jun-17 17:57N 50°17' W 000°47'919.8
2018-Jun-17 17:31N 50°09' W 000°42'1020.0
2018-Jun-17 17:00N 49°59' W 000°37'1020.2
2018-Jun-17 16:31N 49°50' W 000°31'1020.0
2018-Jun-17 16:01N 49°40' W 000°26'1019.9
2018-Jun-17 15:31N 49°31' W 000°20'1019.6
2018-Jun-17 15:01N 49°22' W 000°15'5 9.2
2018-Jun-17 14:30N 49°17' W 000°15'0 0.0
2018-Jun-17 13:59N 49°17' W 000°15'0 0.0
2018-Jun-17 13:31N 49°17' W 000°15'0 0.0
2018-Jun-17 13:00N 49°17' W 000°15'3 5.5
2018-Jun-17 12:31N 49°20' W 000°14'1020.3
2018-Jun-17 12:00N 49°30' W 000°18'1020.4
2018-Jun-17 11:31N 49°40' W 000°24'1020.7
2018-Jun-17 11:01N 49°49' W 000°29'1020.9
2018-Jun-17 10:30N 49°59' W 000°34'1121.0
2018-Jun-17 10:00N 50°09' W 000°39'1121.5
2018-Jun-17 09:30N 50°19' W 000°46'1021.1
2018-Jun-17 09:00N 50°29' W 000°52'1020.8
2018-Jun-17 08:31N 50°39' W 000°58'816.6
2018-Jun-17 08:01N 50°45' W 001°05'3 6.4
2018-Jun-17 07:31N 50°49' W 001°06'0 0.0
2018-Jun-17 07:01N 50°49' W 001°06'0 0.0
2018-Jun-17 06:31N 50°49' W 001°06'0 0.0
2018-Jun-17 06:00N 50°49' W 001°06'1 1.6
2018-Jun-17 05:30N 50°48' W 001°07'611.8
2018-Jun-17 05:00N 50°43' W 001°02'713.0
2018-Jun-17 04:30N 50°37' W 000°58'713.1
2018-Jun-17 04:00N 50°31' W 000°54'611.5
2018-Jun-17 03:30N 50°26' W 000°51'611.4
2018-Jun-17 02:58N 50°20' W 000°48'612.1
2018-Jun-17 02:30N 50°15' W 000°45'611.9
2018-Jun-17 02:00N 50°09' W 000°40'611.6
2018-Jun-17 01:30N 50°05' W 000°36'611.5
2018-Jun-17 01:00N 49°59' W 000°33'611.3
2018-Jun-17 00:30N 49°54' W 000°30'611.1
2018-Jun-17 00:00N 49°48' W 000°27'611.0
2018-Jun-16 23:30N 49°43' W 000°25'611.2
2018-Jun-16 23:00N 49°38' W 000°22'611.3
2018-Jun-16 22:30N 49°32' W 000°20'510.7
2018-Jun-16 22:00N 49°27' W 000°17'510.6
2018-Jun-16 21:30N 49°22' W 000°14'510.0
2018-Jun-16 21:00N 49°17' W 000°15'0 0.1
2018-Jun-16 20:30N 49°17' W 000°15'0 0.0
2018-Jun-16 20:00N 49°17' W 000°15'0 0.0
2018-Jun-16 19:30N 49°17' W 000°15'4 7.5
2018-Jun-16 19:00N 49°21' W 000°14'918.7
2018-Jun-16 18:30N 49°30' W 000°21'1019.1
2018-Jun-16 18:00N 49°38' W 000°28'918.9
2018-Jun-16 17:30N 49°47' W 000°34'918.6
2018-Jun-16 17:00N 49°55' W 000°39'918.3
2018-Jun-16 16:31N 50°04' W 000°44'918.0
2018-Jun-16 16:00N 50°12' W 000°48'1418.5
2018-Jun-16 15:14N 50°26' W 000°55'418.4
2018-Jun-16 15:00N 50°30' W 000°56'918.4
2018-Jun-16 14:30N 50°39' W 000°59'816.2
2018-Jun-16 14:01N 50°46' W 001°05'3 5.3
2018-Jun-16 13:30N 50°49' W 001°06'0 0.0
2018-Jun-16 13:00N 50°49' W 001°06'0 0.0
2018-Jun-16 12:30N 50°49' W 001°06'0 0.7
2018-Jun-16 12:00N 50°49' W 001°06'612.1
2018-Jun-16 11:30N 50°43' W 001°02'1020.5
2018-Jun-16 11:01N 50°34' W 000°55'1120.5
2018-Jun-16 10:28N 50°24' W 000°48'1021.2
2018-Jun-16 10:00N 50°14' W 000°46'1020.0
2018-Jun-16 09:30N 50°05' W 000°39'1019.2
2018-Jun-16 09:01N 49°57' W 000°33'1020.1
2018-Jun-16 08:30N 49°47' W 000°28'1020.0
2018-Jun-16 08:01N 49°37' W 000°23'1019.2
2018-Jun-16 07:31N 49°28' W 000°18'917.8
2018-Jun-16 07:00N 49°20' W 000°14'2 5.0
2018-Jun-16 06:30N 49°17' W 000°15'0 0.0
2018-Jun-16 06:00N 49°17' W 000°15'0 0.0
2018-Jun-16 05:30N 49°17' W 000°15'0 0.0
2018-Jun-16 05:00N 49°17' W 000°15'0 0.1
2018-Jun-16 04:30N 49°17' W 000°15'714.4
2018-Jun-16 04:01N 49°25' W 000°14'917.3
2018-Jun-16 03:31N 49°32' W 000°20'917.1
2018-Jun-16 03:01N 49°40' W 000°25'714.3
2018-Jun-16 02:31N 49°47' W 000°29'714.5
2018-Jun-16 02:01N 49°54' W 000°32'714.7
2018-Jun-16 01:31N 50°01' W 000°36'915.1
2018-Jun-16 00:55N 50°09' W 000°40'715.5
2018-Jun-16 00:28N 50°16' W 000°44'715.6
2018-Jun-15 23:59N 50°23' W 000°49'816.0
2018-Jun-15 23:30N 50°30' W 000°53'815.7
2018-Jun-15 23:00N 50°37' W 000°57'714.0
2018-Jun-15 22:30N 50°43' W 001°03'611.4
2018-Jun-15 22:01N 50°48' W 001°07'1 1.6
2018-Jun-15 21:31N 50°49' W 001°06'0 0.0
2018-Jun-15 21:00N 50°49' W 001°06'0 0.0
2018-Jun-15 20:30N 50°49' W 001°06'1 1.7
2018-Jun-15 20:00N 50°48' W 001°07'713.5
2018-Jun-15 19:30N 50°43' W 001°00'1019.4
2018-Jun-15 19:00N 50°34' W 000°57'1020.9
2018-Jun-15 18:30N 50°23' W 000°54'1020.9
2018-Jun-15 18:00N 50°13' W 000°49'1020.9
2018-Jun-15 17:30N 50°03' W 000°44'1121.3
2018-Jun-15 17:00N 49°53' W 000°37'1121.4
2018-Jun-15 16:30N 49°44' W 000°30'1121.5
2018-Jun-15 16:00N 49°34' W 000°23'1121.3
2018-Jun-15 15:30N 49°25' W 000°16'714.8
2018-Jun-15 15:01N 49°17' W 000°15'0 0.1
2018-Jun-15 14:30N 49°17' W 000°15'0 0.0
2018-Jun-15 14:00N 49°17' W 000°15'0 0.0
2018-Jun-15 13:30N 49°17' W 000°15'0 0.0
2018-Jun-15 13:00N 49°17' W 000°15'5 9.6
2018-Jun-15 12:30N 49°22' W 000°14'1020.9
2018-Jun-15 12:00N 49°32' W 000°19'1019.7
2018-Jun-15 11:30N 49°41' W 000°24'1019.8
2018-Jun-15 11:00N 49°51' W 000°29'1019.9
2018-Jun-15 10:30N 50°00' W 000°34'1020.1
2018-Jun-15 10:00N 50°09' W 000°39'1020.2
2018-Jun-15 09:30N 50°19' W 000°46'1220.1
2018-Jun-15 08:55N 50°30' W 000°53'819.8
2018-Jun-15 08:30N 50°37' W 000°58'816.7
2018-Jun-15 08:00N 50°44' W 001°04'4 8.9
2018-Jun-15 07:30N 50°49' W 001°06'0 0.5
2018-Jun-15 07:00N 50°49' W 001°06'0 0.0
2018-Jun-15 06:30N 50°49' W 001°06'0 0.0
2018-Jun-15 06:00N 50°49' W 001°06'1 1.6
2018-Jun-15 05:30N 50°48' W 001°07'611.8
2018-Jun-15 05:00N 50°43' W 001°01'612.3
2018-Jun-15 04:30N 50°38' W 000°58'815.0
2018-Jun-15 04:00N 50°30' W 000°55'612.0
2018-Jun-15 03:30N 50°25' W 000°52'910.9
2018-Jun-15 02:42N 50°17' W 000°47'211.1
2018-Jun-15 02:30N 50°14' W 000°46'611.8
2018-Jun-15 02:00N 50°09' W 000°42'611.8
2018-Jun-15 01:30N 50°03' W 000°39'611.8
2018-Jun-15 01:00N 49°58' W 000°36'611.9
2018-Jun-15 00:30N 49°53' W 000°32'611.7
2018-Jun-15 00:01N 49°47' W 000°29'611.5
2018-Jun-14 23:30N 49°42' W 000°26'611.3
2018-Jun-14 23:00N 49°36' W 000°23'611.3
2018-Jun-14 22:30N 49°31' W 000°20'611.2
2018-Jun-14 22:01N 49°26' W 000°18'510.8
2018-Jun-14 21:31N 49°21' W 000°15'3 6.7
2018-Jun-14 21:00N 49°17' W 000°15'0 0.0
2018-Jun-14 20:30N 49°17' W 000°15'0 0.0
2018-Jun-14 20:01N 49°17' W 000°15'0 0.0
2018-Jun-14 19:31N 49°17' W 000°15'4 7.6
2018-Jun-14 19:00N 49°21' W 000°14'1121.2
2018-Jun-14 18:30N 49°31' W 000°22'1121.1
2018-Jun-14 18:00N 49°40' W 000°29'1020.6
2018-Jun-14 17:30N 49°50' W 000°35'1019.1
2018-Jun-14 17:00N 49°58' W 000°41'918.6
2018-Jun-14 16:30N 50°07' W 000°45'918.7
2018-Jun-14 16:00N 50°16' W 000°49'1019.2
2018-Jun-14 15:30N 50°26' W 000°52'918.8
2018-Jun-14 15:00N 50°35' W 000°57'918.3
2018-Jun-14 14:30N 50°43' W 001°02'612.4
2018-Jun-14 14:01N 50°49' W 001°07'0 0.9
2018-Jun-14 13:30N 50°49' W 001°06'0 0.0
2018-Jun-14 13:00N 50°49' W 001°06'0 0.0
2018-Jun-14 12:30N 50°49' W 001°06'0 0.3
2018-Jun-14 12:01N 50°49' W 001°06'4 8.6
2018-Jun-14 11:31N 50°44' W 001°04'1019.6
2018-Jun-14 11:00N 50°36' W 000°57'2020.5
2018-Jun-14 10:00N 50°16' W 000°47'1020.8
2018-Jun-14 09:31N 50°07' W 000°41'1020.4
2018-Jun-14 09:01N 49°57' W 000°36'1020.4
2018-Jun-14 08:30N 49°47' W 000°32'1020.0
2018-Jun-14 08:01N 49°39' W 000°24'1020.5
2018-Jun-14 07:30N 49°29' W 000°18'1019.3
2018-Jun-14 07:01N 49°20' W 000°14'2 4.7
2018-Jun-14 06:30N 49°17' W 000°15'0 0.0
2018-Jun-14 06:00N 49°17' W 000°15'0 0.0
2018-Jun-14 05:30N 49°17' W 000°15'0 0.0
2018-Jun-14 05:00N 49°17' W 000°15'0 0.3
2018-Jun-14 04:30N 49°17' W 000°15'714.1
2018-Jun-14 04:00N 49°24' W 000°16'611.3
2018-Jun-14 03:30N 49°30' W 000°19'611.8
2018-Jun-14 03:01N 49°35' W 000°23'714.9
2018-Jun-14 02:31N 49°42' W 000°27'714.2
2018-Jun-14 02:00N 49°49' W 000°31'713.6
2018-Jun-14 01:31N 49°55' W 000°36'713.7
2018-Jun-14 01:00N 50°01' W 000°41'815.1
2018-Jun-14 00:30N 50°08' W 000°43'815.3
2018-Jun-14 00:00N 50°16' W 000°45'815.5
2018-Jun-13 23:30N 50°23' W 000°49'815.9
2018-Jun-13 23:00N 50°31' W 000°54'815.5
2018-Jun-13 22:30N 50°38' W 000°58'713.9
2018-Jun-13 22:00N 50°44' W 001°03'5 9.5
2018-Jun-13 21:30N 50°48' W 001°07'1 1.9
2018-Jun-13 21:00N 50°49' W 001°06'0 0.0
2018-Jun-13 20:30N 50°49' W 001°06'0 0.0
2018-Jun-13 20:00N 50°49' W 001°06'0 0.0
2018-Jun-13 19:30N 50°49' W 001°06'0 0.0
2018-Jun-13 19:00N 50°49' W 001°06'0 0.0
2018-Jun-13 18:30N 50°49' W 001°06'1 1.8
2018-Jun-13 18:00N 50°48' W 001°07'612.5
2018-Jun-13 17:31N 50°43' W 001°01'714.1
2018-Jun-13 17:01N 50°37' W 000°58'815.5
2018-Jun-13 16:30N 50°29' W 000°55'816.9
2018-Jun-13 16:01N 50°21' W 000°52'918.9
2018-Jun-13 15:31N 50°12' W 000°48'1019.4
2018-Jun-13 15:01N 50°03' W 000°41'1019.8
2018-Jun-13 14:31N 49°54' W 000°35'1019.7
2018-Jun-13 14:00N 49°45' W 000°29'1019.2
2018-Jun-13 13:31N 49°36' W 000°24'1019.2
2018-Jun-13 13:00N 49°27' W 000°18'917.8
2018-Jun-13 12:30N 49°18' W 000°15'1 1.9
2018-Jun-13 12:00N 49°17' W 000°15'0 0.0
2018-Jun-13 11:30N 49°17' W 000°15'0 0.0
2018-Jun-13 11:00N 49°17' W 000°15'0 0.1
2018-Jun-13 10:30N 49°17' W 000°15'0 0.0
2018-Jun-13 10:00N 49°17' W 000°15'0 0.0
2018-Jun-13 09:30N 49°17' W 000°15'0 0.0
2018-Jun-13 09:00N 49°17' W 000°15'0 0.0
2018-Jun-13 08:30N 49°17' W 000°15'0 0.0
2018-Jun-13 07:55N 49°17' W 000°15'0 0.0
2018-Jun-13 07:30N 49°17' W 000°15'0 0.0
2018-Jun-13 06:55N 49°17' W 000°15'0 0.1
2018-Jun-13 06:30N 49°17' W 000°15'0 0.0
2018-Jun-13 06:00N 49°17' W 000°15'0 0.0
2018-Jun-13 05:30N 49°17' W 000°15'2 4.8
2018-Jun-13 05:00N 49°20' W 000°14'815.3
2018-Jun-13 04:31N 49°27' W 000°16'  

Dump ship's entire track history